sensor_id;sensor_type;location;lat;lon;timestamp;P1;durP1;ratioP1;P2;durP2;ratioP2
33403;SDS011;19751;40.274;18.268;2022-07-12T00:01:53;2.55;;;1.40;;
33403;SDS011;19751;40.274;18.268;2022-07-12T00:04:18;1.98;;;1.33;;
33403;SDS011;19751;40.274;18.268;2022-07-12T00:06:44;4.07;;;1.75;;
33403;SDS011;19751;40.274;18.268;2022-07-12T00:09:09;1.55;;;1.30;;
33403;SDS011;19751;40.274;18.268;2022-07-12T00:11:35;2.75;;;1.25;;
33403;SDS011;19751;40.274;18.268;2022-07-12T00:14:02;4.85;;;1.42;;
33403;SDS011;19751;40.274;18.268;2022-07-12T00:16:28;4.03;;;1.73;;
33403;SDS011;19751;40.274;18.268;2022-07-12T00:18:53;2.92;;;1.23;;
33403;SDS011;19751;40.274;18.268;2022-07-12T00:21:19;10.00;;;2.03;;
33403;SDS011;19751;40.274;18.268;2022-07-12T00:23:45;1.73;;;1.40;;
33403;SDS011;19751;40.274;18.268;2022-07-12T00:26:11;3.00;;;1.48;;
33403;SDS011;19751;40.274;18.268;2022-07-12T00:28:36;5.47;;;1.13;;
33403;SDS011;19751;40.274;18.268;2022-07-12T00:31:02;4.47;;;2.08;;
33403;SDS011;19751;40.274;18.268;2022-07-12T00:33:28;1.40;;;1.20;;
33403;SDS011;19751;40.274;18.268;2022-07-12T00:35:54;2.53;;;1.30;;
33403;SDS011;19751;40.274;18.268;2022-07-12T00:38:19;2.65;;;1.48;;
33403;SDS011;19751;40.274;18.268;2022-07-12T00:40:45;2.28;;;1.30;;
33403;SDS011;19751;40.274;18.268;2022-07-12T00:43:10;3.28;;;1.17;;
33403;SDS011;19751;40.274;18.268;2022-07-12T00:45:36;3.70;;;1.48;;
33403;SDS011;19751;40.274;18.268;2022-07-12T00:48:02;2.22;;;1.30;;
33403;SDS011;19751;40.274;18.268;2022-07-12T00:50:27;1.45;;;1.30;;
33403;SDS011;19751;40.274;18.268;2022-07-12T00:52:54;2.40;;;1.00;;
33403;SDS011;19751;40.274;18.268;2022-07-12T00:55:20;2.17;;;1.15;;
33403;SDS011;19751;40.274;18.268;2022-07-12T00:57:46;1.50;;;1.00;;
33403;SDS011;19751;40.274;18.268;2022-07-12T01:00:26;2.10;;;1.17;;
33403;SDS011;19751;40.274;18.268;2022-07-12T01:02:53;2.17;;;1.33;;
33403;SDS011;19751;40.274;18.268;2022-07-12T01:05:21;2.25;;;1.75;;
33403;SDS011;19751;40.274;18.268;2022-07-12T01:07:46;3.50;;;1.10;;
33403;SDS011;19751;40.274;18.268;2022-07-12T01:10:14;2.05;;;1.23;;
33403;SDS011;19751;40.274;18.268;2022-07-12T01:12:39;1.98;;;1.23;;
33403;SDS011;19751;40.274;18.268;2022-07-12T01:15:06;2.92;;;1.35;;
33403;SDS011;19751;40.274;18.268;2022-07-12T01:17:32;1.40;;;1.10;;
33403;SDS011;19751;40.274;18.268;2022-07-12T01:19:58;2.00;;;1.30;;
33403;SDS011;19751;40.274;18.268;2022-07-12T01:22:30;1.70;;;1.08;;
33403;SDS011;19751;40.274;18.268;2022-07-12T01:24:57;1.42;;;1.15;;
33403;SDS011;19751;40.274;18.268;2022-07-12T01:27:22;1.52;;;1.00;;
33403;SDS011;19751;40.274;18.268;2022-07-12T01:29:48;3.70;;;1.58;;
33403;SDS011;19751;40.274;18.268;2022-07-12T01:32:14;2.70;;;1.10;;
33403;SDS011;19751;40.274;18.268;2022-07-12T01:37:24;2.67;;;1.40;;
33403;SDS011;19751;40.274;18.268;2022-07-12T01:39:53;2.03;;;1.10;;
33403;SDS011;19751;40.274;18.268;2022-07-12T01:42:21;1.42;;;0.90;;
33403;SDS011;19751;40.274;18.268;2022-07-12T01:44:48;3.80;;;1.65;;
33403;SDS011;19751;40.274;18.268;2022-07-12T01:47:14;4.10;;;1.30;;
33403;SDS011;19751;40.274;18.268;2022-07-12T01:49:40;2.47;;;0.98;;
33403;SDS011;19751;40.274;18.268;2022-07-12T01:52:05;2.78;;;1.60;;
33403;SDS011;19751;40.274;18.268;2022-07-12T01:54:32;3.47;;;1.40;;
33403;SDS011;19751;40.274;18.268;2022-07-12T01:56:57;4.35;;;1.23;;
33403;SDS011;19751;40.274;18.268;2022-07-12T01:59:23;3.17;;;1.15;;
33403;SDS011;19751;40.274;18.268;2022-07-12T02:01:49;1.40;;;0.90;;
33403;SDS011;19751;40.274;18.268;2022-07-12T02:04:18;3.00;;;1.02;;
33403;SDS011;19751;40.274;18.268;2022-07-12T02:06:44;2.22;;;1.10;;
33403;SDS011;19751;40.274;18.268;2022-07-12T02:09:11;5.97;;;1.48;;
33403;SDS011;19751;40.274;18.268;2022-07-12T02:11:37;3.50;;;0.80;;
33403;SDS011;19751;40.274;18.268;2022-07-12T02:14:03;3.53;;;1.10;;
33403;SDS011;19751;40.274;18.268;2022-07-12T02:16:28;2.97;;;1.15;;
33403;SDS011;19751;40.274;18.268;2022-07-12T02:18:55;2.20;;;1.20;;
33403;SDS011;19751;40.274;18.268;2022-07-12T02:21:21;3.38;;;1.52;;
33403;SDS011;19751;40.274;18.268;2022-07-12T02:23:46;1.67;;;1.25;;
33403;SDS011;19751;40.274;18.268;2022-07-12T02:26:12;3.25;;;1.42;;
33403;SDS011;19751;40.274;18.268;2022-07-12T02:28:37;2.65;;;1.30;;
33403;SDS011;19751;40.274;18.268;2022-07-12T02:31:03;1.90;;;1.20;;
33403;SDS011;19751;40.274;18.268;2022-07-12T02:33:29;3.78;;;1.35;;
33403;SDS011;19751;40.274;18.268;2022-07-12T02:35:54;9.13;;;1.30;;
33403;SDS011;19751;40.274;18.268;2022-07-12T02:38:20;2.63;;;1.05;;
33403;SDS011;19751;40.274;18.268;2022-07-12T02:40:46;2.25;;;1.25;;
33403;SDS011;19751;40.274;18.268;2022-07-12T02:43:21;4.93;;;1.38;;
33403;SDS011;19751;40.274;18.268;2022-07-12T02:45:47;2.70;;;1.10;;
33403;SDS011;19751;40.274;18.268;2022-07-12T02:48:13;4.07;;;1.40;;
33403;SDS011;19751;40.274;18.268;2022-07-12T02:50:39;3.05;;;1.40;;
33403;SDS011;19751;40.274;18.268;2022-07-12T02:53:05;4.75;;;1.30;;
33403;SDS011;19751;40.274;18.268;2022-07-12T02:55:31;1.92;;;1.33;;
33403;SDS011;19751;40.274;18.268;2022-07-12T02:57:57;2.42;;;1.48;;
33403;SDS011;19751;40.274;18.268;2022-07-12T03:00:22;1.63;;;1.30;;
33403;SDS011;19751;40.274;18.268;2022-07-12T03:02:48;3.08;;;1.20;;
33403;SDS011;19751;40.274;18.268;2022-07-12T03:05:13;4.40;;;1.20;;
33403;SDS011;19751;40.274;18.268;2022-07-12T03:07:39;3.35;;;1.10;;
33403;SDS011;19751;40.274;18.268;2022-07-12T03:10:05;1.80;;;1.02;;
33403;SDS011;19751;40.274;18.268;2022-07-12T03:12:30;1.95;;;1.55;;
33403;SDS011;19751;40.274;18.268;2022-07-12T03:14:56;4.13;;;2.10;;
33403;SDS011;19751;40.274;18.268;2022-07-12T03:17:22;4.30;;;2.50;;
33403;SDS011;19751;40.274;18.268;2022-07-12T03:19:47;5.28;;;2.05;;
33403;SDS011;19751;40.274;18.268;2022-07-12T03:22:13;3.50;;;1.67;;
33403;SDS011;19751;40.274;18.268;2022-07-12T03:24:39;7.75;;;1.67;;
33403;SDS011;19751;40.274;18.268;2022-07-12T03:27:05;3.78;;;1.95;;
33403;SDS011;19751;40.274;18.268;2022-07-12T03:29:31;4.72;;;2.35;;
33403;SDS011;19751;40.274;18.268;2022-07-12T03:31:57;3.05;;;1.63;;
33403;SDS011;19751;40.274;18.268;2022-07-12T03:34:22;6.57;;;1.77;;
33403;SDS011;19751;40.274;18.268;2022-07-12T03:36:48;4.53;;;1.58;;
33403;SDS011;19751;40.274;18.268;2022-07-12T03:39:13;7.18;;;1.60;;
33403;SDS011;19751;40.274;18.268;2022-07-12T03:41:39;6.18;;;1.85;;
33403;SDS011;19751;40.274;18.268;2022-07-12T03:44:05;2.58;;;1.25;;
33403;SDS011;19751;40.274;18.268;2022-07-12T03:46:31;2.65;;;1.70;;
33403;SDS011;19751;40.274;18.268;2022-07-12T03:48:58;2.30;;;0.98;;
33403;SDS011;19751;40.274;18.268;2022-07-12T03:51:24;5.07;;;1.60;;
33403;SDS011;19751;40.274;18.268;2022-07-12T03:53:50;4.28;;;1.73;;
33403;SDS011;19751;40.274;18.268;2022-07-12T03:56:16;5.38;;;1.25;;
33403;SDS011;19751;40.274;18.268;2022-07-12T03:59:08;1.90;;;0.98;;
33403;SDS011;19751;40.274;18.268;2022-07-12T04:01:33;4.35;;;1.75;;
33403;SDS011;19751;40.274;18.268;2022-07-12T04:03:59;1.73;;;1.10;;
33403;SDS011;19751;40.274;18.268;2022-07-12T04:06:24;2.60;;;1.30;;
33403;SDS011;19751;40.274;18.268;2022-07-12T04:08:50;5.75;;;1.23;;
33403;SDS011;19751;40.274;18.268;2022-07-12T04:11:15;2.30;;;1.30;;
33403;SDS011;19751;40.274;18.268;2022-07-12T04:13:41;4.97;;;1.38;;
33403;SDS011;19751;40.274;18.268;2022-07-12T04:16:07;5.60;;;1.65;;
33403;SDS011;19751;40.274;18.268;2022-07-12T04:18:32;4.13;;;1.25;;
33403;SDS011;19751;40.274;18.268;2022-07-12T04:20:58;3.67;;;1.20;;
33403;SDS011;19751;40.274;18.268;2022-07-12T04:23:24;7.45;;;1.30;;
33403;SDS011;19751;40.274;18.268;2022-07-12T04:25:50;7.43;;;1.45;;
33403;SDS011;19751;40.274;18.268;2022-07-12T04:28:16;3.67;;;1.45;;
33403;SDS011;19751;40.274;18.268;2022-07-12T04:30:41;4.40;;;1.13;;
33403;SDS011;19751;40.274;18.268;2022-07-12T04:33:09;1.88;;;1.00;;
33403;SDS011;19751;40.274;18.268;2022-07-12T04:35:35;4.50;;;1.38;;
33403;SDS011;19751;40.274;18.268;2022-07-12T04:38:01;2.95;;;1.20;;
33403;SDS011;19751;40.274;18.268;2022-07-12T04:40:27;2.95;;;1.10;;
33403;SDS011;19751;40.274;18.268;2022-07-12T04:42:52;4.38;;;1.45;;
33403;SDS011;19751;40.274;18.268;2022-07-12T04:45:18;2.13;;;1.45;;
33403;SDS011;19751;40.274;18.268;2022-07-12T04:47:43;5.70;;;1.30;;
33403;SDS011;19751;40.274;18.268;2022-07-12T04:50:09;3.25;;;1.30;;
33403;SDS011;19751;40.274;18.268;2022-07-12T04:52:35;3.85;;;1.45;;
33403;SDS011;19751;40.274;18.268;2022-07-12T04:55:00;2.05;;;1.25;;
33403;SDS011;19751;40.274;18.268;2022-07-12T04:57:26;4.20;;;1.20;;
33403;SDS011;19751;40.274;18.268;2022-07-12T04:59:52;4.18;;;1.38;;
33403;SDS011;19751;40.274;18.268;2022-07-12T05:02:17;2.35;;;1.50;;
33403;SDS011;19751;40.274;18.268;2022-07-12T05:04:43;4.30;;;1.08;;
33403;SDS011;19751;40.274;18.268;2022-07-12T05:07:09;4.10;;;1.50;;
33403;SDS011;19751;40.274;18.268;2022-07-12T05:09:34;2.65;;;0.80;;
33403;SDS011;19751;40.274;18.268;2022-07-12T05:12:00;2.45;;;0.95;;
33403;SDS011;19751;40.274;18.268;2022-07-12T05:14:25;5.82;;;1.40;;
33403;SDS011;19751;40.274;18.268;2022-07-12T05:16:51;3.83;;;1.38;;
33403;SDS011;19751;40.274;18.268;2022-07-12T05:19:16;2.95;;;1.30;;
33403;SDS011;19751;40.274;18.268;2022-07-12T05:21:42;4.45;;;1.55;;
33403;SDS011;19751;40.274;18.268;2022-07-12T05:24:08;5.47;;;1.63;;
33403;SDS011;19751;40.274;18.268;2022-07-12T05:26:33;6.70;;;3.00;;
33403;SDS011;19751;40.274;18.268;2022-07-12T05:28:59;9.82;;;3.60;;
33403;SDS011;19751;40.274;18.268;2022-07-12T05:31:25;6.88;;;3.50;;
33403;SDS011;19751;40.274;18.268;2022-07-12T05:33:51;7.15;;;4.43;;
33403;SDS011;19751;40.274;18.268;2022-07-12T05:36:17;8.00;;;3.90;;
33403;SDS011;19751;40.274;18.268;2022-07-12T05:38:43;11.48;;;4.70;;
33403;SDS011;19751;40.274;18.268;2022-07-12T05:41:08;10.15;;;3.88;;
33403;SDS011;19751;40.274;18.268;2022-07-12T05:43:34;8.10;;;3.13;;
33403;SDS011;19751;40.274;18.268;2022-07-12T05:45:59;10.27;;;3.45;;
33403;SDS011;19751;40.274;18.268;2022-07-12T05:48:25;5.47;;;2.47;;
33403;SDS011;19751;40.274;18.268;2022-07-12T05:50:51;4.55;;;2.10;;
33403;SDS011;19751;40.274;18.268;2022-07-12T05:53:17;8.25;;;2.80;;
33403;SDS011;19751;40.274;18.268;2022-07-12T05:55:50;5.25;;;2.22;;
33403;SDS011;19751;40.274;18.268;2022-07-12T05:58:17;4.38;;;1.73;;
33403;SDS011;19751;40.274;18.268;2022-07-12T06:00:44;6.15;;;1.85;;
33403;SDS011;19751;40.274;18.268;2022-07-12T06:03:10;6.45;;;1.70;;
33403;SDS011;19751;40.274;18.268;2022-07-12T06:05:36;3.58;;;1.60;;
33403;SDS011;19751;40.274;18.268;2022-07-12T06:08:02;3.90;;;1.67;;
33403;SDS011;19751;40.274;18.268;2022-07-12T06:10:28;4.78;;;1.20;;
33403;SDS011;19751;40.274;18.268;2022-07-12T06:12:53;4.57;;;1.15;;
33403;SDS011;19751;40.274;18.268;2022-07-12T06:15:19;3.35;;;1.30;;
33403;SDS011;19751;40.274;18.268;2022-07-12T06:17:44;4.60;;;1.33;;
33403;SDS011;19751;40.274;18.268;2022-07-12T06:20:10;2.15;;;0.90;;
33403;SDS011;19751;40.274;18.268;2022-07-12T06:22:36;5.93;;;1.70;;
33403;SDS011;19751;40.274;18.268;2022-07-12T06:25:01;2.45;;;1.10;;
33403;SDS011;19751;40.274;18.268;2022-07-12T06:27:27;3.55;;;1.17;;
33403;SDS011;19751;40.274;18.268;2022-07-12T06:29:53;2.35;;;1.05;;
33403;SDS011;19751;40.274;18.268;2022-07-12T06:32:18;3.33;;;0.88;;
33403;SDS011;19751;40.274;18.268;2022-07-12T06:34:44;5.72;;;1.10;;
33403;SDS011;19751;40.274;18.268;2022-07-12T06:37:09;4.85;;;1.50;;
33403;SDS011;19751;40.274;18.268;2022-07-12T06:39:35;3.20;;;1.17;;
33403;SDS011;19751;40.274;18.268;2022-07-12T06:42:01;3.53;;;1.02;;
33403;SDS011;19751;40.274;18.268;2022-07-12T06:44:31;4.25;;;1.33;;
33403;SDS011;19751;40.274;18.268;2022-07-12T06:46:57;3.78;;;1.58;;
33403;SDS011;19751;40.274;18.268;2022-07-12T06:49:23;2.40;;;1.25;;
33403;SDS011;19751;40.274;18.268;2022-07-12T06:51:49;6.22;;;0.95;;
33403;SDS011;19751;40.274;18.268;2022-07-12T06:54:15;1.05;;;0.80;;
33403;SDS011;19751;40.274;18.268;2022-07-12T06:56:40;2.80;;;1.10;;
33403;SDS011;19751;40.274;18.268;2022-07-12T06:59:06;2.25;;;1.02;;
33403;SDS011;19751;40.274;18.268;2022-07-12T07:01:36;2.75;;;0.80;;
33403;SDS011;19751;40.274;18.268;2022-07-12T07:04:02;1.02;;;0.70;;
33403;SDS011;19751;40.274;18.268;2022-07-12T07:06:28;1.25;;;1.00;;
33403;SDS011;19751;40.274;18.268;2022-07-12T07:08:54;2.17;;;0.90;;
33403;SDS011;19751;40.274;18.268;2022-07-12T07:11:19;2.28;;;1.00;;
33403;SDS011;19751;40.274;18.268;2022-07-12T07:13:45;5.00;;;1.20;;
33403;SDS011;19751;40.274;18.268;2022-07-12T07:16:12;2.83;;;0.90;;
33403;SDS011;19751;40.274;18.268;2022-07-12T07:18:39;2.22;;;1.10;;
33403;SDS011;19751;40.274;18.268;2022-07-12T07:21:05;3.13;;;1.13;;
33403;SDS011;19751;40.274;18.268;2022-07-12T07:23:31;1.73;;;1.00;;
33403;SDS011;19751;40.274;18.268;2022-07-12T07:25:58;1.35;;;0.80;;
33403;SDS011;19751;40.274;18.268;2022-07-12T07:28:23;1.70;;;0.82;;
33403;SDS011;19751;40.274;18.268;2022-07-12T07:30:49;2.40;;;0.90;;
33403;SDS011;19751;40.274;18.268;2022-07-12T07:33:18;1.42;;;1.15;;
33403;SDS011;19751;40.274;18.268;2022-07-12T07:35:47;3.83;;;1.40;;
33403;SDS011;19751;40.274;18.268;2022-07-12T07:38:15;1.80;;;0.98;;
33403;SDS011;19751;40.274;18.268;2022-07-12T07:40:41;1.75;;;0.82;;
33403;SDS011;19751;40.274;18.268;2022-07-12T07:43:07;2.20;;;1.00;;
33403;SDS011;19751;40.274;18.268;2022-07-12T07:45:33;1.45;;;0.80;;
33403;SDS011;19751;40.274;18.268;2022-07-12T07:47:58;0.85;;;0.68;;
33403;SDS011;19751;40.274;18.268;2022-07-12T07:50:24;1.55;;;0.75;;
33403;SDS011;19751;40.274;18.268;2022-07-12T07:52:49;3.05;;;1.20;;
33403;SDS011;19751;40.274;18.268;2022-07-12T07:55:16;5.35;;;1.13;;
33403;SDS011;19751;40.274;18.268;2022-07-12T07:57:42;1.63;;;1.05;;
33403;SDS011;19751;40.274;18.268;2022-07-12T08:00:08;2.83;;;0.95;;
33403;SDS011;19751;40.274;18.268;2022-07-12T08:02:34;3.92;;;1.23;;
33403;SDS011;19751;40.274;18.268;2022-07-12T08:04:59;4.53;;;1.20;;
33403;SDS011;19751;40.274;18.268;2022-07-12T08:07:25;1.85;;;1.00;;
33403;SDS011;19751;40.274;18.268;2022-07-12T08:09:50;2.17;;;0.80;;
33403;SDS011;19751;40.274;18.268;2022-07-12T08:12:16;3.00;;;0.80;;
33403;SDS011;19751;40.274;18.268;2022-07-12T08:14:41;3.42;;;0.80;;
33403;SDS011;19751;40.274;18.268;2022-07-12T08:17:07;1.23;;;1.10;;
33403;SDS011;19751;40.274;18.268;2022-07-12T08:19:33;1.20;;;0.70;;
33403;SDS011;19751;40.274;18.268;2022-07-12T08:21:58;1.85;;;0.80;;
33403;SDS011;19751;40.274;18.268;2022-07-12T08:24:24;0.90;;;0.80;;
33403;SDS011;19751;40.274;18.268;2022-07-12T08:26:49;2.17;;;0.70;;
33403;SDS011;19751;40.274;18.268;2022-07-12T08:29:15;2.63;;;1.10;;
33403;SDS011;19751;40.274;18.268;2022-07-12T08:31:41;1.90;;;1.00;;
33403;SDS011;19751;40.274;18.268;2022-07-12T08:34:06;1.48;;;0.85;;
33403;SDS011;19751;40.274;18.268;2022-07-12T08:36:32;0.98;;;0.88;;
33403;SDS011;19751;40.274;18.268;2022-07-12T08:38:58;3.03;;;0.80;;
33403;SDS011;19751;40.274;18.268;2022-07-12T08:41:23;4.93;;;0.82;;
33403;SDS011;19751;40.274;18.268;2022-07-12T08:43:49;2.50;;;1.13;;
33403;SDS011;19751;40.274;18.268;2022-07-12T08:46:14;4.50;;;1.00;;
33403;SDS011;19751;40.274;18.268;2022-07-12T08:48:41;2.58;;;1.20;;
33403;SDS011;19751;40.274;18.268;2022-07-12T08:51:09;1.42;;;0.80;;
33403;SDS011;19751;40.274;18.268;2022-07-12T08:53:36;1.20;;;1.10;;
33403;SDS011;19751;40.274;18.268;2022-07-12T08:56:03;1.30;;;1.00;;
33403;SDS011;19751;40.274;18.268;2022-07-12T08:58:29;1.92;;;1.00;;
33403;SDS011;19751;40.274;18.268;2022-07-12T09:00:55;1.67;;;0.93;;
33403;SDS011;19751;40.274;18.268;2022-07-12T09:03:21;1.75;;;0.98;;
33403;SDS011;19751;40.274;18.268;2022-07-12T09:05:56;2.00;;;1.05;;
33403;SDS011;19751;40.274;18.268;2022-07-12T09:08:29;1.83;;;0.98;;
33403;SDS011;19751;40.274;18.268;2022-07-12T09:11:01;1.50;;;0.85;;
33403;SDS011;19751;40.274;18.268;2022-07-12T09:13:47;0.93;;;0.70;;
33403;SDS011;19751;40.274;18.268;2022-07-12T09:16:15;2.50;;;0.80;;
33403;SDS011;19751;40.274;18.268;2022-07-12T09:18:43;3.92;;;1.20;;
33403;SDS011;19751;40.274;18.268;2022-07-12T09:21:09;3.35;;;1.20;;
33403;SDS011;19751;40.274;18.268;2022-07-12T09:23:35;2.28;;;0.90;;
33403;SDS011;19751;40.274;18.268;2022-07-12T09:26:01;3.30;;;1.38;;
33403;SDS011;19751;40.274;18.268;2022-07-12T09:28:33;3.75;;;1.00;;
33403;SDS011;19751;40.274;18.268;2022-07-12T09:30:59;1.88;;;0.80;;
33403;SDS011;19751;40.274;18.268;2022-07-12T09:33:24;1.77;;;0.70;;
33403;SDS011;19751;40.274;18.268;2022-07-12T09:38:39;1.65;;;0.90;;
33403;SDS011;19751;40.274;18.268;2022-07-12T09:41:16;0.80;;;0.70;;
33403;SDS011;19751;40.274;18.268;2022-07-12T09:43:43;1.48;;;0.70;;
33403;SDS011;19751;40.274;18.268;2022-07-12T09:46:09;2.80;;;1.05;;
33403;SDS011;19751;40.274;18.268;2022-07-12T09:48:35;1.77;;;1.00;;
33403;SDS011;19751;40.274;18.268;2022-07-12T09:51:02;3.05;;;0.73;;
33403;SDS011;19751;40.274;18.268;2022-07-12T09:53:36;1.98;;;0.70;;
33403;SDS011;19751;40.274;18.268;2022-07-12T09:56:10;1.38;;;0.60;;
33403;SDS011;19751;40.274;18.268;2022-07-12T09:58:43;1.45;;;0.80;;
33403;SDS011;19751;40.274;18.268;2022-07-12T10:01:19;1.50;;;1.00;;
33403;SDS011;19751;40.274;18.268;2022-07-12T10:03:45;2.92;;;0.80;;
33403;SDS011;19751;40.274;18.268;2022-07-12T10:06:13;3.13;;;0.93;;
33403;SDS011;19751;40.274;18.268;2022-07-12T10:08:41;0.65;;;0.60;;
33403;SDS011;19751;40.274;18.268;2022-07-12T10:11:07;1.40;;;0.88;;
33403;SDS011;19751;40.274;18.268;2022-07-12T10:13:33;1.92;;;0.80;;
33403;SDS011;19751;40.274;18.268;2022-07-12T10:16:01;3.08;;;1.00;;
33403;SDS011;19751;40.274;18.268;2022-07-12T10:18:27;0.80;;;0.68;;
33403;SDS011;19751;40.274;18.268;2022-07-12T10:20:53;0.90;;;0.70;;
33403;SDS011;19751;40.274;18.268;2022-07-12T10:25:45;2.10;;;1.02;;
33403;SDS011;19751;40.274;18.268;2022-07-12T10:28:13;1.83;;;1.05;;
33403;SDS011;19751;40.274;18.268;2022-07-12T10:30:49;1.48;;;0.90;;
33403;SDS011;19751;40.274;18.268;2022-07-12T10:33:19;1.05;;;0.88;;
33403;SDS011;19751;40.274;18.268;2022-07-12T10:38:26;1.05;;;0.95;;
33403;SDS011;19751;40.274;18.268;2022-07-12T10:40:52;2.08;;;0.90;;
33403;SDS011;19751;40.274;18.268;2022-07-12T10:43:22;2.80;;;0.80;;
33403;SDS011;19751;40.274;18.268;2022-07-12T10:46:18;6.93;;;1.00;;
33403;SDS011;19751;40.274;18.268;2022-07-12T10:48:47;2.90;;;0.98;;
33403;SDS011;19751;40.274;18.268;2022-07-12T10:51:13;1.67;;;0.93;;
33403;SDS011;19751;40.274;18.268;2022-07-12T10:53:40;1.42;;;0.90;;
33403;SDS011;19751;40.274;18.268;2022-07-12T10:58:48;2.45;;;0.90;;
33403;SDS011;19751;40.274;18.268;2022-07-12T11:01:16;0.88;;;0.80;;
33403;SDS011;19751;40.274;18.268;2022-07-12T11:03:50;2.60;;;0.93;;
33403;SDS011;19751;40.274;18.268;2022-07-12T11:06:20;1.80;;;0.90;;
33403;SDS011;19751;40.274;18.268;2022-07-12T11:11:14;1.65;;;1.20;;
33403;SDS011;19751;40.274;18.268;2022-07-12T11:13:39;2.05;;;0.80;;
33403;SDS011;19751;40.274;18.268;2022-07-12T11:16:05;2.42;;;1.05;;
33403;SDS011;19751;40.274;18.268;2022-07-12T11:18:31;4.10;;;0.88;;
33403;SDS011;19751;40.274;18.268;2022-07-12T11:20:58;1.92;;;1.05;;
33403;SDS011;19751;40.274;18.268;2022-07-12T11:23:25;1.60;;;1.23;;
33403;SDS011;19751;40.274;18.268;2022-07-12T11:25:59;2.90;;;0.98;;
33403;SDS011;19751;40.274;18.268;2022-07-12T11:28:29;3.58;;;0.80;;
33403;SDS011;19751;40.274;18.268;2022-07-12T11:31:09;1.88;;;0.80;;
33403;SDS011;19751;40.274;18.268;2022-07-12T11:33:37;1.52;;;0.82;;
33403;SDS011;19751;40.274;18.268;2022-07-12T11:36:05;1.90;;;1.10;;
33403;SDS011;19751;40.274;18.268;2022-07-12T11:38:32;1.27;;;0.77;;
33403;SDS011;19751;40.274;18.268;2022-07-12T11:41:00;1.05;;;0.80;;
33403;SDS011;19751;40.274;18.268;2022-07-12T11:43:27;0.70;;;0.65;;
33403;SDS011;19751;40.274;18.268;2022-07-12T11:45:53;3.72;;;0.82;;
33403;SDS011;19751;40.274;18.268;2022-07-12T11:48:20;2.63;;;1.30;;
33403;SDS011;19751;40.274;18.268;2022-07-12T11:50:46;1.13;;;0.90;;
33403;SDS011;19751;40.274;18.268;2022-07-12T11:53:23;1.10;;;0.75;;
33403;SDS011;19751;40.274;18.268;2022-07-12T11:55:52;3.08;;;0.88;;
33403;SDS011;19751;40.274;18.268;2022-07-12T11:58:21;1.30;;;0.90;;
33403;SDS011;19751;40.274;18.268;2022-07-12T12:00:47;2.25;;;1.25;;
33403;SDS011;19751;40.274;18.268;2022-07-12T12:03:15;0.93;;;0.68;;
33403;SDS011;19751;40.274;18.268;2022-07-12T12:05:43;1.08;;;0.73;;
33403;SDS011;19751;40.274;18.268;2022-07-12T12:08:13;1.85;;;0.70;;
33403;SDS011;19751;40.274;18.268;2022-07-12T12:10:40;0.70;;;0.70;;
33403;SDS011;19751;40.274;18.268;2022-07-12T12:13:12;1.02;;;0.90;;
33403;SDS011;19751;40.274;18.268;2022-07-12T12:15:47;2.25;;;0.93;;
33403;SDS011;19751;40.274;18.268;2022-07-12T12:18:15;1.20;;;0.93;;
33403;SDS011;19751;40.274;18.268;2022-07-12T12:20:41;5.97;;;0.93;;
33403;SDS011;19751;40.274;18.268;2022-07-12T12:23:25;1.55;;;1.08;;
33403;SDS011;19751;40.274;18.268;2022-07-12T12:25:51;1.00;;;0.82;;
33403;SDS011;19751;40.274;18.268;2022-07-12T12:28:16;3.67;;;1.00;;
33403;SDS011;19751;40.274;18.268;2022-07-12T12:30:52;1.23;;;0.80;;
33403;SDS011;19751;40.274;18.268;2022-07-12T12:38:51;1.77;;;0.77;;
33403;SDS011;19751;40.274;18.268;2022-07-12T12:41:21;1.85;;;1.02;;
33403;SDS011;19751;40.274;18.268;2022-07-12T12:44:23;1.92;;;0.80;;
33403;SDS011;19751;40.274;18.268;2022-07-12T12:46:52;2.45;;;0.93;;
33403;SDS011;19751;40.274;18.268;2022-07-12T12:50:06;1.65;;;0.90;;
33403;SDS011;19751;40.274;18.268;2022-07-12T12:52:16;1.60;;;0.80;;
33403;SDS011;19751;40.274;18.268;2022-07-12T12:54:42;1.52;;;0.93;;
33403;SDS011;19751;40.274;18.268;2022-07-12T12:57:09;6.05;;;0.80;;
33403;SDS011;19751;40.274;18.268;2022-07-12T12:59:36;3.15;;;1.13;;
33403;SDS011;19751;40.274;18.268;2022-07-12T13:02:02;2.42;;;1.10;;
33403;SDS011;19751;40.274;18.268;2022-07-12T13:04:30;2.25;;;0.90;;
33403;SDS011;19751;40.274;18.268;2022-07-12T13:06:56;1.85;;;1.10;;
33403;SDS011;19751;40.274;18.268;2022-07-12T13:09:23;1.67;;;0.90;;
33403;SDS011;19751;40.274;18.268;2022-07-12T13:11:49;2.50;;;1.25;;
33403;SDS011;19751;40.274;18.268;2022-07-12T13:14:14;1.88;;;0.85;;
33403;SDS011;19751;40.274;18.268;2022-07-12T13:16:41;1.38;;;0.90;;
33403;SDS011;19751;40.274;18.268;2022-07-12T13:19:06;3.40;;;1.10;;
33403;SDS011;19751;40.274;18.268;2022-07-12T13:21:32;2.05;;;0.90;;
33403;SDS011;19751;40.274;18.268;2022-07-12T13:23:58;1.88;;;1.00;;
33403;SDS011;19751;40.274;18.268;2022-07-12T13:26:23;1.38;;;0.80;;
33403;SDS011;19751;40.274;18.268;2022-07-12T13:28:49;2.13;;;0.82;;
33403;SDS011;19751;40.274;18.268;2022-07-12T13:31:14;0.70;;;0.60;;
33403;SDS011;19751;40.274;18.268;2022-07-12T13:33:41;1.77;;;0.77;;
33403;SDS011;19751;40.274;18.268;2022-07-12T13:36:06;2.28;;;1.13;;
33403;SDS011;19751;40.274;18.268;2022-07-12T13:38:32;1.35;;;0.75;;
33403;SDS011;19751;40.274;18.268;2022-07-12T13:40:57;1.80;;;0.88;;
33403;SDS011;19751;40.274;18.268;2022-07-12T13:43:23;0.70;;;0.70;;
33403;SDS011;19751;40.274;18.268;2022-07-12T13:45:51;1.80;;;0.80;;
33403;SDS011;19751;40.274;18.268;2022-07-12T13:48:17;2.78;;;1.02;;
33403;SDS011;19751;40.274;18.268;2022-07-12T13:50:46;2.47;;;0.80;;
33403;SDS011;19751;40.274;18.268;2022-07-12T13:53:12;0.80;;;0.80;;
33403;SDS011;19751;40.274;18.268;2022-07-12T13:55:38;4.55;;;2.28;;
33403;SDS011;19751;40.274;18.268;2022-07-12T13:58:06;3.92;;;1.20;;
33403;SDS011;19751;40.274;18.268;2022-07-12T14:00:32;2.60;;;1.42;;
33403;SDS011;19751;40.274;18.268;2022-07-12T14:02:58;5.72;;;3.88;;
33403;SDS011;19751;40.274;18.268;2022-07-12T14:05:24;4.60;;;1.40;;
33403;SDS011;19751;40.274;18.268;2022-07-12T14:07:49;1.90;;;1.40;;
33403;SDS011;19751;40.274;18.268;2022-07-12T14:10:16;3.50;;;0.80;;
33403;SDS011;19751;40.274;18.268;2022-07-12T14:12:41;2.25;;;0.70;;
33403;SDS011;19751;40.274;18.268;2022-07-12T14:15:08;6.13;;;1.15;;
33403;SDS011;19751;40.274;18.268;2022-07-12T14:20:02;2.40;;;0.95;;
33403;SDS011;19751;40.274;18.268;2022-07-12T14:22:29;1.83;;;0.93;;
33403;SDS011;19751;40.274;18.268;2022-07-12T14:24:54;1.80;;;1.00;;
33403;SDS011;19751;40.274;18.268;2022-07-12T14:27:21;4.18;;;0.93;;
33403;SDS011;19751;40.274;18.268;2022-07-12T14:29:46;0.77;;;0.60;;
33403;SDS011;19751;40.274;18.268;2022-07-12T14:32:12;2.90;;;0.80;;
33403;SDS011;19751;40.274;18.268;2022-07-12T14:34:37;3.40;;;0.80;;
33403;SDS011;19751;40.274;18.268;2022-07-12T14:37:03;1.25;;;0.68;;
33403;SDS011;19751;40.274;18.268;2022-07-12T14:39:28;4.22;;;1.00;;
33403;SDS011;19751;40.274;18.268;2022-07-12T14:41:54;1.08;;;0.80;;
33403;SDS011;19751;40.274;18.268;2022-07-12T14:44:20;2.72;;;0.77;;
33403;SDS011;19751;40.274;18.268;2022-07-12T14:46:46;3.92;;;1.08;;
33403;SDS011;19751;40.274;18.268;2022-07-12T14:49:12;5.00;;;1.15;;
33403;SDS011;19751;40.274;18.268;2022-07-12T14:51:37;3.10;;;1.05;;
33403;SDS011;19751;40.274;18.268;2022-07-12T14:54:06;2.28;;;1.02;;
33403;SDS011;19751;40.274;18.268;2022-07-12T14:56:32;2.67;;;1.08;;